Time;durP1;ratioP1;P1;durP2;ratioP2;P2;SDS_P1;SDS_P2;PMS_P1;PMS_P2;Temp;Humidity;BMP_temperature;BMP_pressure;BME280_temperature;BME280_humidity;BME280_pressure;Samples;Min_cycle;Max_cycle;Signal;HPM_P1;HPM_P2
2021/01/12 00:00:53;;;;;;;60.88;27.07;;;;;;;-2.68;100.00;99853.12;1767838;81;21279;-74
2021/01/12 00:03:26;;;;;;;42.93;21.60;;;;;;;-2.71;100.00;99852.95;1764667;81;20951;-74
2021/01/12 00:05:59;;;;;;;46.45;22.55;;;;;;;-2.72;100.00;99850.02;1728332;83;20952;-74
2021/01/12 00:08:27;;;;;;;48.87;21.33;;;;;;;-2.73;100.00;99856.23;1764735;81;20923;-74
2021/01/12 00:10:57;;;;;;;56.20;25.45;;;;;;;-2.73;100.00;99860.67;1728257;83;21181;-74
2021/01/12 00:13:26;;;;;;;51.83;25.20;;;;;;;-2.75;100.00;99854.25;1759075;81;22349;-74
2021/01/12 00:15:54;;;;;;;63.95;27.32;;;;;;;-2.76;100.00;99859.19;1758915;81;21134;-74
2021/01/12 00:18:22;;;;;;;46.15;22.13;;;;;;;-2.76;100.00;99857.88;1749802;82;20983;-74
2021/01/12 00:20:51;;;;;;;48.42;24.02;;;;;;;-2.78;100.00;99855.89;1749666;82;20995;-74
2021/01/12 00:23:19;;;;;;;94.75;32.38;;;;;;;-2.79;100.00;99847.69;1726513;82;20988;-74
2021/01/12 00:25:47;;;;;;;;;;;;;;;-2.80;100.00;99852.09;1752339;82;21655;-74
2021/01/12 00:28:16;;;;;;;47.50;22.13;;;;;;;-2.78;100.00;99849.82;1749808;82;20157;-74
2021/01/12 00:30:44;;;;;;;61.85;25.35;;;;;;;-2.78;100.00;99851.95;1749915;82;20960;-74
2021/01/12 00:33:13;;;;;;;87.65;31.87;;;;;;;-2.80;100.00;99852.09;1749842;82;20988;-74
2021/01/12 00:35:41;;;;;;;83.58;33.63;;;;;;;-2.81;100.00;99850.97;1752008;82;21000;-74
2021/01/12 00:38:10;;;;;;;63.30;24.47;;;;;;;-2.81;100.00;99855.72;1713531;83;21380;-74
2021/01/12 00:40:39;;;;;;;41.28;19.35;;;;;;;-2.82;100.00;99855.41;1730006;83;21491;-74
2021/01/12 00:43:07;;;;;;;47.20;22.17;;;;;;;-2.78;100.00;99862.95;1749796;82;21039;-74
2021/01/12 00:45:35;;;;;;;80.60;27.42;;;;;;;-2.78;100.00;99861.64;1751913;82;21012;-74
2021/01/12 00:48:04;;;;;;;70.75;24.45;;;;;;;-2.80;100.00;99856.04;1713707;83;21630;-74
2021/01/12 00:50:35;;;;;;;74.35;27.00;;;;;;;-2.78;100.00;99849.33;1729837;83;21198;-74
2021/01/12 00:53:03;;;;;;;68.62;24.18;;;;;;;-2.78;100.00;99847.20;1729852;83;20991;-75
2021/01/12 00:55:32;;;;;;;88.40;31.50;;;;;;;-2.80;100.00;99852.09;1749753;82;20979;-74
2021/01/12 00:58:01;;;;;;;95.45;31.57;;;;;;;-2.79;100.00;99845.06;1752004;82;28634;-74
2021/01/12 01:00:29;;;;;;;53.65;22.55;;;;;;;-2.81;100.00;99843.90;1713201;83;21061;-74
2021/01/12 01:02:57;;;;;;;30.88;15.75;;;;;;;-2.80;100.00;99844.22;1730159;83;22111;-73
2021/01/12 01:05:26;;;;;;;35.25;17.20;;;;;;;-2.79;100.00;99847.69;1749821;82;22266;-74
2021/01/12 01:07:55;;;;;;;34.70;16.48;;;;;;;-2.78;100.00;99844.56;1749688;82;20925;-74
2021/01/12 01:10:24;;;;;;;53.60;22.62;;;;;;;-2.78;100.00;99837.50;1749525;82;20996;-74
2021/01/12 01:12:52;;;;;;;73.00;27.70;;;;;;;-2.78;100.00;99841.44;1749734;82;21122;-73
2021/01/12 01:15:21;;;;;;;54.45;21.40;;;;;;;-2.78;100.00;99840.63;1750071;81;21269;-73
2021/01/12 01:17:51;;;;;;;28.57;15.25;;;;;;;-2.78;100.00;99839.31;1754112;81;21174;-73
2021/01/12 01:20:19;;;;;;;115.65;37.17;;;;;;;-2.80;100.00;99838.96;1754251;81;27197;-73
2021/01/12 01:22:48;;;;;;;36.88;17.42;;;;;;;-2.80;100.00;99836.83;1754160;81;20940;-74
2021/01/12 01:25:22;;;;;;;32.40;16.90;;;;;;;-2.81;100.00;99832.08;1745348;81;21050;-74
2021/01/12 01:27:50;;;;;;;49.73;20.12;;;;;;;-2.80;100.00;99828.45;1745265;82;21452;-73
2021/01/12 01:30:21;;;;;;;68.75;26.23;;;;;;;-2.81;100.00;99822.88;1745397;82;21161;-74
2021/01/12 01:32:49;;;;;;;76.87;25.55;;;;;;;-2.82;100.00;99829.13;1745329;82;21593;-74
2021/01/12 01:35:18;;;;;;;32.38;17.70;;;;;;;-2.82;100.00;99821.72;1745514;82;21011;-73
2021/01/12 01:37:49;;;;;;;29.57;16.20;;;;;;;-2.82;100.00;99829.13;1744317;82;20896;-74
2021/01/12 01:40:39;;;;;;;56.63;23.60;;;;;;;-2.81;100.00;99826.00;1741097;82;22050;-74
2021/01/12 01:43:07;;;;;;;32.75;17.48;;;;;;;-2.83;100.00;99826.16;1754805;81;20978;-74
2021/01/12 01:45:36;;;;;;;;;;;;;;;-2.83;100.00;99820.09;1757631;81;21493;-74
2021/01/12 01:48:05;;;;;;;34.03;17.35;;;;;;;-2.82;100.00;99820.41;1755212;81;20276;-74
2021/01/12 01:50:35;;;;;;;51.10;21.30;;;;;;;-2.83;100.00;99821.40;1754981;81;21006;-73
2021/01/12 01:53:03;;;;;;;32.55;17.85;;;;;;;-2.84;100.00;99815.33;1755164;81;21207;-74
2021/01/12 01:55:32;;;;;;;31.68;18.52;;;;;;;-2.83;100.00;99815.65;1754974;81;21018;-74
2021/01/12 01:58:01;;;;;;;93.25;39.25;;;;;;;-2.82;100.00;99803.33;1754929;81;20984;-74
2021/01/12 02:00:29;;;;;;;48.08;22.45;;;;;;;-2.81;100.00;99802.36;1754945;81;21226;-73
2021/01/12 02:03:20;;;;;;;28.62;17.37;;;;;;;-2.77;100.00;99800.22;1755215;81;21084;-74
2021/01/12 02:05:59;;;;;;;66.42;23.47;;;;;;;-2.76;100.00;99802.70;1755022;81;21407;-74
2021/01/12 02:08:46;;;;;;;47.83;20.27;;;;;;;-2.76;100.00;99796.63;1790024;80;20931;-74
2021/01/12 02:11:30;;;;;;;99.45;30.77;;;;;;;-2.72;100.00;99801.41;1852158;77;27910;-73
2021/01/12 02:14:05;;;;;;;82.45;30.17;;;;;;;-2.75;100.00;99796.45;1819921;78;20971;-73
2021/01/12 02:16:34;;;;;;;42.05;18.17;;;;;;;-2.75;100.00;99785.13;1819501;78;21350;-73
2021/01/12 02:19:05;;;;;;;46.70;20.65;;;;;;;-2.75;100.00;99791.19;1749942;81;21589;-73
2021/01/12 02:21:33;;;;;;;39.15;20.50;;;;;;;-2.74;100.00;99782.34;1820119;78;20908;-73
2021/01/12 02:24:02;;;;;;;38.70;18.23;;;;;;;-2.73;100.00;99784.47;1820071;78;20927;-73
2021/01/12 02:26:31;;;;;;;44.10;20.75;;;;;;;-2.72;100.00;99784.79;1820127;78;20896;-73
2021/01/12 02:28:59;;;;;;;85.20;29.98;;;;;;;-2.73;100.00;99778.72;1820216;78;21802;-74
2021/01/12 02:31:32;;;;;;;80.60;28.40;;;;;;;-2.72;100.00;99776.91;1749473;82;21011;-73
2021/01/12 02:34:05;;;;;;;141.45;43.33;;;;;;;-2.72;100.00;99777.75;1820000;78;21446;-74
2021/01/12 02:36:34;;;;;;;137.25;47.08;;;;;;;-2.73;100.00;99776.59;1819908;78;20910;-74
2021/01/12 02:39:02;;;;;;;46.98;21.65;;;;;;;-2.73;100.00;99780.53;1819978;78;20920;-74
2021/01/12 02:41:32;;;;;;;65.83;27.27;;;;;;;-2.74;100.00;99775.78;1750576;82;21645;-74
2021/01/12 02:44:01;;;;;;;49.13;20.57;;;;;;;-2.75;100.00;99775.42;1820405;78;20935;-74
2021/01/12 02:46:32;;;;;;;31.97;17.60;;;;;;;-2.75;100.00;99774.11;1721164;82;20995;-74
2021/01/12 02:49:03;;;;;;;30.52;17.65;;;;;;;-2.74;100.00;99780.19;1819720;78;20876;-75
2021/01/12 02:51:36;;;;;;;32.23;16.67;;;;;;;-2.75;100.00;99774.11;1750035;82;20931;-74
2021/01/12 02:54:05;;;;;;;34.13;19.25;;;;;;;-2.75;100.00;99770.17;1819884;78;21372;-74
2021/01/12 02:56:36;;;;;;;34.48;18.30;;;;;;;-2.74;100.00;99771.83;1750021;82;21030;-75
2021/01/12 02:59:06;;;;;;;28.00;15.85;;;;;;;-2.73;100.00;99774.78;1819881;78;20979;-74
2021/01/12 03:01:35;;;;;;;34.67;19.45;;;;;;;-2.74;100.00;99770.52;1819856;78;20995;-73
2021/01/12 03:04:04;;;;;;;32.20;18.57;;;;;;;-2.73;100.00;99768.70;1750078;82;21646;-74
2021/01/12 03:06:33;;;;;;;34.00;18.45;;;;;;;-2.74;100.00;99761.79;1819855;78;21251;-73
2021/01/12 03:09:02;;;;;;;26.48;15.50;;;;;;;-2.74;100.00;99753.91;1749999;82;28199;-73
2021/01/12 03:11:31;;;;;;;28.32;15.98;;;;;;;-2.75;100.00;99747.84;1819710;78;20924;-73
2021/01/12 03:13:59;;;;;;;24.25;15.00;;;;;;;-2.75;100.00;99747.02;1750177;82;20951;-73
2021/01/12 03:16:27;;;;;;;;;;;;;;;-2.75;100.00;99741.77;1822576;78;20986;-73
2021/01/12 03:18:55;;;;;;;33.95;19.55;;;;;;;-2.73;100.00;99738.49;1819911;78;21800;-73
2021/01/12 03:21:24;;;;;;;45.23;23.85;;;;;;;-2.73;100.00;99740.63;1819655;78;21026;-73
2021/01/12 03:23:53;;;;;;;36.00;20.88;;;;;;;-2.72;100.00;99729.61;1749437;82;20999;-73
2021/01/12 03:26:22;;;;;;;;;;;;;;;-2.71;100.00;99727.33;1822062;78;21502;-74
2021/01/12 03:28:50;;;;;;;37.42;21.02;;;;;;;-2.71;100.00;99721.58;1819313;78;20109;-76
2021/01/12 03:31:21;;;;;;;38.48;20.80;;;;;;;-2.71;100.00;99722.89;1749263;82;21464;-74
2021/01/12 03:33:50;;;;;;;34.73;19.92;;;;;;;-2.71;100.00;99716.33;1819330;78;20908;-74
2021/01/12 03:36:18;;;;;;;30.92;17.98;;;;;;;-2.68;100.00;99724.38;1749596;82;27640;-74
2021/01/12 03:38:46;;;;;;;28.62;17.42;;;;;;;-2.69;100.00;99716.17;1819473;78;20999;-74
2021/01/12 03:41:15;;;;;;;29.75;16.87;;;;;;;-2.69;100.00;99716.17;1749400;82;20995;-74
2021/01/12 03:43:44;;;;;;;36.98;18.77;;;;;;;-2.70;100.00;99717.95;1819519;78;21625;-74
2021/01/12 03:46:14;;;;;;;35.88;20.08;;;;;;;-2.69;100.00;99709.60;1749410;82;21046;-74
2021/01/12 03:48:42;;;;;;;;;;;;;;;-2.68;100.00;99708.60;1821971;78;20998;-75
2021/01/12 03:51:10;;;;;;;35.17;20.35;;;;;;;-2.67;100.00;99707.61;1819372;78;20145;-74
2021/01/12 03:53:41;;;;;;;36.15;22.02;;;;;;;-2.69;100.00;99697.78;1749517;82;21050;-75
2021/01/12 03:56:13;;;;;;;41.25;23.47;;;;;;;-2.67;100.00;99702.34;1819183;78;21415;-74
2021/01/12 03:58:41;;;;;;;34.92;21.05;;;;;;;-2.69;100.00;99697.78;1819191;78;20975;-74
2021/01/12 04:01:11;;;;;;;36.98;21.25;;;;;;;-2.68;100.00;99691.52;1819201;78;20908;-74
2021/01/12 04:03:42;;;;;;;40.67;21.85;;;;;;;-2.67;100.00;99691.84;1749493;82;21478;-73
2021/01/12 04:06:32;;;;;;;36.45;20.88;;;;;;;-2.66;100.00;99690.38;1819214;78;20896;-75
2021/01/12 04:09:00;;;;;;;37.75;21.27;;;;;;;-2.65;100.00;99694.63;1724368;83;21507;-74
2021/01/12 04:11:34;;;;;;;45.48;22.45;;;;;;;-2.64;100.00;99692.34;1724561;83;21049;-74
2021/01/12 04:14:01;;;;;;;48.87;25.82;;;;;;;-2.64;100.00;99685.78;1724677;83;21078;-74
2021/01/12 04:16:30;;;;;;;43.10;24.65;;;;;;;-2.63;100.00;99682.16;1724523;83;21099;-73
2021/01/12 04:18:59;;;;;;;43.65;23.62;;;;;;;-2.63;100.00;99679.52;1724780;83;21028;-74
2021/01/12 04:21:28;;;;;;;40.63;21.70;;;;;;;-2.63;100.00;99682.66;1724526;83;21391;-74
2021/01/12 04:23:59;;;;;;;41.37;22.65;;;;;;;-2.62;100.00;99683.00;1724536;83;21507;-74
2021/01/12 04:26:27;;;;;;;59.55;28.98;;;;;;;-2.64;100.00;99679.70;1724512;83;20984;-74
2021/01/12 04:28:56;;;;;;;50.90;23.40;;;;;;;-2.64;100.00;99677.08;1724624;83;25005;-74
2021/01/12 04:31:26;;;;;;;;;;;;;;;-2.63;100.00;99678.70;1727107;83;21032;-74
2021/01/12 04:33:55;;;;;;;51.30;24.23;;;;;;;-2.62;100.00;99673.80;1750274;81;22447;-73
2021/01/12 04:36:24;;;;;;;50.85;27.40;;;;;;;-2.61;100.00;99680.69;1757801;81;20991;-73
2021/01/12 04:38:52;;;;;;;49.15;27.10;;;;;;;-2.60;100.00;99677.05;1757848;81;21779;-74
2021/01/12 04:41:20;;;;;;;47.27;28.10;;;;;;;-2.59;100.00;99680.84;1757892;81;20996;-73
2021/01/12 04:43:49;;;;;;;55.90;29.65;;;;;;;-2.58;100.00;99676.41;1730872;81;20917;-73
2021/01/12 04:46:18;;;;;;;52.27;26.95;;;;;;;-2.58;100.00;99673.77;1757799;81;24100;-73
2021/01/12 04:48:49;;;;;;;55.85;31.82;;;;;;;-2.56;100.00;99670.49;1757709;81;21023;-73
2021/01/12 04:51:17;;;;;;;68.55;37.08;;;;;;;-2.56;100.00;99667.05;1757724;81;21589;-73
2021/01/12 04:53:46;;;;;;;61.23;33.65;;;;;;;-2.56;100.00;99666.55;1757785;81;21130;-73
2021/01/12 04:56:16;;;;;;;60.88;29.27;;;;;;;-2.54;100.00;99672.47;1757656;81;21026;-73
2021/01/12 04:58:47;;;;;;;70.78;39.38;;;;;;;-2.54;100.00;99667.71;1757742;81;21203;-74
2021/01/12 05:01:21;;;;;;;66.50;36.83;;;;;;;-2.52;100.00;99674.91;1757561;81;21125;-73
2021/01/12 05:03:53;;;;;;;66.25;35.30;;;;;;;-2.54;100.00;99671.16;1757731;81;20936;-74
2021/01/12 05:06:24;;;;;;;63.98;32.38;;;;;;;-2.53;100.00;99670.16;1757720;81;21066;-75
2021/01/12 05:08:56;;;;;;;59.05;32.93;;;;;;;-2.53;100.00;99663.58;1757615;81;21285;-74
2021/01/12 05:11:34;;;;;;;55.90;31.17;;;;;;;-2.54;100.00;99664.58;1757614;81;21494;-74
2021/01/12 05:14:09;;;;;;;57.23;31.90;;;;;;;-2.54;100.00;99665.08;1757649;81;21008;-74
2021/01/12 05:16:49;;;;;;;60.48;31.00;;;;;;;-2.53;100.00;99668.84;1729234;81;20928;-74
2021/01/12 05:19:24;;;;;;;61.95;33.55;;;;;;;-2.53;100.00;99673.28;1757610;81;20928;-73
2021/01/12 05:22:02;;;;;;;66.67;34.63;;;;;;;-2.53;100.00;99668.02;1757661;81;21035;-73
2021/01/12 05:24:32;;;;;;;67.40;35.10;;;;;;;-2.54;100.00;99665.08;1757601;81;21327;-73
2021/01/12 05:27:09;;;;;;;75.95;37.03;;;;;;;-2.54;100.00;99662.45;1756605;81;21102;-73
2021/01/12 05:29:41;;;;;;;61.45;32.88;;;;;;;-2.53;100.00;99664.08;1754965;81;20944;-75
2021/01/12 05:32:11;;;;;;;51.88;25.57;;;;;;;-2.53;100.00;99662.27;1757686;81;21023;-73
2021/01/12 05:34:40;;;;;;;70.03;35.52;;;;;;;-2.51;100.00;99650.28;1757693;81;21186;-74
2021/01/12 05:37:11;;;;;;;62.62;35.78;;;;;;;-2.50;100.00;99657.17;1754610;81;22130;-73
2021/01/12 05:39:42;;;;;;;70.55;36.50;;;;;;;-2.50;100.00;99660.64;1757570;81;20947;-74
2021/01/12 05:42:11;;;;;;;76.95;38.33;;;;;;;-2.50;100.00;99659.80;1757884;81;21054;-73
2021/01/12 05:44:41;;;;;;;77.97;38.98;;;;;;;-2.52;100.00;99650.78;1757932;81;20928;-74
2021/01/12 05:47:16;;;;;;;70.67;37.08;;;;;;;-2.52;100.00;99656.52;1723354;81;21157;-75
2021/01/12 05:49:47;;;;;;;74.60;36.70;;;;;;;-2.53;100.00;99658.83;1756784;81;21289;-76
2021/01/12 05:52:15;;;;;;;73.28;36.50;;;;;;;-2.52;100.00;99657.36;1755484;81;21098;-74
2021/01/12 05:55:02;;;;;;;70.50;36.28;;;;;;;-2.53;100.00;99657.52;1730452;81;21586;-75
2021/01/12 05:57:40;;;;;;;50.25;23.90;;;;;;;-2.53;100.00;99659.64;1740455;82;21228;-77
2021/01/12 06:00:10;;;;;;;65.55;31.52;;;;;;;-2.52;100.00;99661.77;1741749;82;21549;-75
2021/01/12 06:02:41;;;;;;;68.12;33.45;;;;;;;-2.50;100.00;99656.70;1741350;82;22294;-75
2021/01/12 06:05:59;;;;;;;63.92;37.85;;;;;;;-2.51;100.00;99658.98;1730375;82;21755;-74
2021/01/12 06:09:36;;;;;;;55.45;29.50;;;;;;;-2.48;100.00;99659.14;1847686;77;28325;-73
2021/01/12 06:12:07;;;;;;;55.70;29.80;;;;;;;-2.54;100.00;99656.70;1811856;78;20908;-72
2021/01/12 06:14:46;;;;;;;52.27;30.27;;;;;;;-2.55;100.00;99655.54;1700241;83;21165;-74
2021/01/12 06:17:15;;;;;;;54.58;29.35;;;;;;;-2.56;100.00;99651.28;1736904;81;21070;-75
2021/01/12 06:19:47;;;;;;;54.10;26.40;;;;;;;-2.59;100.00;99649.31;1735922;81;21582;-75
2021/01/12 06:22:24;;;;;;;64.62;32.35;;;;;;;-2.57;100.00;99650.94;1741872;81;20929;-75
2021/01/12 06:25:03;;;;;;;52.62;23.92;;;;;;;-2.57;100.00;99653.56;1773842;80;20955;-75
2021/01/12 06:27:44;;;;;;;;;;;;;;;;;;;;;
2021/01/12 06:30:37;;;;;;;48.85;23.42;;;;;;;-2.56;100.00;99648.66;1850218;77;28179;-73
2021/01/12 06:33:06;;;;;;;53.00;29.60;;;;;;;-2.61;100.00;99649.97;1747573;80;21511;-75
2021/01/12 06:35:47;;;;;;;55.70;28.17;;;;;;;-2.61;100.00;99652.59;1755635;81;22052;-74
2021/01/12 06:38:10;;;;;;;48.08;24.72;;;;;;;-2.63;100.00;99647.98;1754253;81;21014;-74
2021/01/12 07:09:07;;;;;;;53.30;27.35;;;;;;;-2.64;100.00;99625.84;1725085;81;21172;-75
2021/01/12 07:15:54;;;;;;;55.98;26.75;;;;;;;-2.64;100.00;99621.39;1723604;82;21110;-74
2021/01/12 07:41:33;;;;;;;;;;;;;;;;;;;;;
2021/01/12 07:44:09;;;;;;;47.43;23.35;;;;;;;-2.65;100.00;99614.98;1833585;77;28278;-75
2021/01/12 07:50:32;;;;;;;48.15;23.50;;;;;;;-2.67;100.00;99614.33;1626670;87;21161;-74
2021/01/12 08:32:50;;;;;;;;;;;;;;;;;;;;;
2021/01/12 08:36:19;;;;;;;74.20;34.60;;;;;;;-2.60;100.00;99591.65;1661676;85;21379;-75
2021/01/12 08:39:34;;;;;;;59.83;25.52;;;;;;;-2.65;100.00;99597.91;1635134;84;21313;-74
2021/01/12 08:57:16;;;;;;;41.35;20.95;;;;;;;-2.61;100.00;99592.14;1616358;85;21742;-74
2021/01/12 09:55:17;;;;;;;31.68;17.00;;;;;;;-2.44;100.00;99484.34;1759701;81;28327;-76
2021/01/12 09:58:06;;;;;;;36.70;18.30;;;;;;;-2.48;100.00;99474.66;1675798;85;20944;-76
2021/01/12 10:01:42;;;;;;;;;;;;;;;;;;;;;
2021/01/12 10:04:30;;;;;;;33.15;18.98;;;;;;;-2.41;100.00;99466.41;1781369;80;28697;-76
2021/01/12 10:07:13;;;;;;;31.25;17.45;;;;;;;-2.46;100.00;99459.53;1764288;81;21006;-75
2021/01/12 10:10:16;;;;;;;37.75;21.65;;;;;;;-2.43;100.00;99459.19;1765594;81;21607;-75
2021/01/12 10:13:17;;;;;;;;;;;;;;;;;;;;;
2021/01/12 10:16:09;;;;;;;32.30;13.95;;;;;;;-2.35;100.00;99450.47;1815678;79;21035;-74
2021/01/12 10:19:37;;;;;;;;;;;;;;;;;;;;;
2021/01/12 10:22:45;;;;;;;29.20;15.53;;;;;;;-2.39;100.00;99428.13;1807992;79;21070;-75
2021/01/12 10:25:30;;;;;;;;;;;;;;;;;;;;;
2021/01/12 10:28:32;;;;;;;36.10;19.20;;;;;;;-2.37;100.00;99415.14;1737031;81;21012;-73
2021/01/12 10:31:44;;;;;;;;;;;;;;;;;;;;;
2021/01/12 10:34:28;;;;;;;26.73;16.60;;;;;;;-2.28;100.00;99403.24;1522975;93;21230;-74
2021/01/12 10:40:29;;;;;;;25.20;12.93;;;;;;;-2.20;100.00;99398.77;1821769;77;28527;-76
2021/01/12 10:43:09;;;;;;;25.80;14.75;;;;;;;-2.22;100.00;99392.86;1779982;80;21280;-77
2021/01/12 10:49:44;;;;;;;;;;;;;;;;;;;;;
2021/01/12 11:04:01;;;;;;;;;;;;;;;;;;;;;
2021/01/12 11:54:38;;;;;;;31.93;17.07;;;;;;;-2.41;100.00;99324.97;1814727;74;21619;-75
2021/01/12 11:57:13;;;;;;;34.23;17.05;;;;;;;-2.44;100.00;99316.94;1820911;76;21077;-74
2021/01/12 12:00:05;;;;;;;29.20;15.47;;;;;;;-2.46;100.00;99313.66;1821744;77;21475;-74
2021/01/12 12:48:09;;;;;;;;;;;;;;;;;;;;;
2021/01/12 13:22:55;;;;;;;47.30;20.75;;;;;;;-2.40;100.00;99212.25;1757927;80;27978;-76
2021/01/12 13:25:48;;;;;;;43.00;21.00;;;;;;;-2.39;100.00;99208.14;1825026;77;29344;-75
2021/01/12 13:28:59;;;;;;;41.68;26.00;;;;;;;-2.38;100.00;99197.96;1816980;77;27857;-75
2021/01/12 13:31:23;;;;;;;42.08;25.97;;;;;;;-2.44;100.00;99195.22;1811124;78;21004;-75
2021/01/12 13:38:23;;;;;;;46.63;23.70;;;;;;;-2.46;100.00;99177.49;1691671;83;21115;-75
2021/01/12 14:01:32;;;;;;;38.25;17.90;;;;;;;-2.59;100.00;99142.13;1721547;78;21050;-75
2021/01/12 14:04:08;;;;;;;41.48;19.65;;;;;;;-2.62;100.00;99130.67;1699396;83;21213;-74
2021/01/12 14:13:05;;;;;;;29.82;16.35;;;;;;;-2.66;100.00;99138.58;1742360;80;21518;-75
2021/01/12 14:16:18;;;;;;;;;;;;;;;;;;;;;
2021/01/12 14:30:08;;;;;;;27.22;15.05;;;;;;;-2.68;100.00;99148.95;1725635;78;28311;-74
2021/01/12 14:33:04;;;;;;;24.18;14.63;;;;;;;-2.74;100.00;99155.74;1689843;83;21465;-74
2021/01/12 14:35:50;;;;;;;33.50;16.05;;;;;;;-2.74;100.00;99147.02;1688042;83;21517;-74
2021/01/12 14:39:47;;;;;;;;;;;;;;;;;;;;;
2021/01/12 14:53:45;;;;;;;24.30;14.15;;;;;;;-2.72;100.00;99138.00;1817462;77;29036;-75
2021/01/12 14:56:13;;;;;;;30.55;16.82;;;;;;;-2.77;100.00;99134.25;1755849;80;21797;-75
2021/01/12 14:59:13;;;;;;;46.00;19.62;;;;;;;-2.77;100.00;99135.56;1742438;80;23212;-74
2021/01/12 15:02:01;;;;;;;27.35;16.87;;;;;;;-2.77;100.00;99130.31;1744464;80;21173;-75
2021/01/12 15:04:43;;;;;;;49.45;21.87;;;;;;;-2.75;100.00;99134.89;1769587;80;21541;-75
2021/01/12 15:13:58;;;;;;;38.48;21.48;;;;;;;-2.75;100.00;99122.56;1798925;77;21111;-73
2021/01/12 15:16:44;;;;;;;31.40;17.30;;;;;;;-2.74;100.00;99116.81;1681238;82;21187;-75
2021/01/12 15:20:32;;;;;;;33.80;18.77;;;;;;;-2.73;100.00;99118.46;1691846;81;21172;-75
2021/01/12 15:26:27;;;;;;;35.25;19.32;;;;;;;-2.74;100.00;99101.89;1686791;81;21314;-75
2021/01/12 15:32:56;;;;;;;53.33;35.88;;;;;;;-2.73;100.00;99098.25;1750868;80;21267;-75
2021/01/12 15:48:28;;;;;;;;;;;;;;;;;;;;;
2021/01/12 15:51:33;;;;;;;;;;;;;;;;;;;;;
2021/01/12 16:03:20;;;;;;;41.13;22.00;;;;;;;-2.78;100.00;99071.70;1406628;97;21230;-76
2021/01/12 16:21:22;;;;;;;43.73;21.40;;;;;;;-2.84;100.00;99062.74;1732515;81;21481;-75
2021/01/12 16:24:12;;;;;;;57.80;28.73;;;;;;;-2.84;100.00;99050.11;1766658;80;21733;-76
2021/01/12 16:26:55;;;;;;;39.78;22.82;;;;;;;-2.83;100.00;99053.86;1761577;80;21760;-76
2021/01/12 16:30:05;;;;;;;;;;;;;;;;;;;;;
2021/01/12 16:40:45;;;;;;;52.13;26.20;;;;;;;-2.86;100.00;99030.58;1590946;88;21257;-76
2021/01/12 17:04:36;;;;;;;64.50;30.60;;;;;;;-2.89;100.00;99023.55;1744001;78;21164;-73
2021/01/12 17:07:11;;;;;;;46.68;23.20;;;;;;;-2.88;100.00;99019.44;1748304;80;21117;-76
2021/01/12 17:09:53;;;;;;;61.63;32.40;;;;;;;-2.89;100.00;99009.94;1751169;80;21132;-74
2021/01/12 17:12:35;;;;;;;56.48;27.10;;;;;;;-2.88;100.00;99012.88;1750771;80;21612;-74
2021/01/12 17:15:30;;;;;;;48.83;25.72;;;;;;;-2.84;100.00;99004.15;1819649;76;28131;-75
2021/01/12 17:22:50;;;;;;;45.00;22.58;;;;;;;-2.90;100.00;99000.91;1717935;82;21089;-75
2021/01/12 17:25:24;;;;;;;60.08;32.58;;;;;;;-2.87;100.00;99011.86;1730226;82;21609;-76
2021/01/12 17:35:21;;;;;;;48.98;27.73;;;;;;;-2.80;100.00;98997.52;1848887;77;28208;-73
2021/01/12 17:37:54;;;;;;;52.83;26.35;;;;;;;-2.84;100.00;99001.02;1811732;78;21003;-74
2021/01/12 17:40:33;;;;;;;42.43;22.62;;;;;;;-2.84;100.00;98998.89;1740767;82;21464;-74
2021/01/12 17:43:19;;;;;;;44.25;25.43;;;;;;;-2.85;100.00;98992.80;1817998;78;21128;-76
2021/01/12 17:45:58;;;;;;;47.55;23.77;;;;;;;-2.84;100.00;98983.14;1817661;78;21006;-73
2021/01/12 17:51:24;;;;;;;45.55;24.25;;;;;;;-2.81;100.00;98985.39;1841009;77;28284;-74
2021/01/12 18:05:19;;;;;;;43.60;20.82;;;;;;;-2.83;100.00;98980.81;1720175;80;21498;-75
2021/01/12 18:20:16;;;;;;;34.03;17.10;;;;;;;-2.81;100.00;98961.75;1707606;81;21215;-74
2021/01/12 18:23:01;;;;;;;36.35;18.10;;;;;;;-2.82;100.00;98966.67;1727121;81;21140;-75
2021/01/12 18:30:22;;;;;;;36.73;19.90;;;;;;;-2.77;100.00;98970.07;1803474;77;28857;-75
2021/01/12 18:41:42;;;;;;;36.15;18.92;;;;;;;-2.81;100.00;98950.74;1808996;77;28585;-75
2021/01/12 18:44:42;;;;;;;31.10;17.75;;;;;;;-2.85;100.00;98944.72;1757421;80;21490;-74
2021/01/12 18:47:20;;;;;;;33.30;19.05;;;;;;;-2.85;100.00;98953.91;1759937;81;22304;-75
2021/01/12 19:51:10;;;;;;;42.05;21.48;;;;;;;-3.15;100.00;98892.22;1698373;79;21199;-74
2021/01/12 19:53:42;;;;;;;43.40;23.85;;;;;;;-3.16;100.00;98888.45;1659284;80;21501;-75
2021/01/12 19:56:11;;;;;;;34.67;18.95;;;;;;;-3.18;100.00;98892.59;1680086;82;21190;-74
2021/01/12 19:59:13;;;;;;;41.40;23.92;;;;;;;-3.18;100.00;98881.28;1652523;83;21137;-73
2021/01/12 20:01:43;;;;;;;26.90;15.05;;;;;;;-3.18;100.00;98889.16;1646004;83;21242;-73
2021/01/12 20:04:45;;;;;;;32.88;16.65;;;;;;;-3.20;100.00;98883.27;1610728;84;21480;-73
2021/01/12 20:07:17;;;;;;;31.65;17.55;;;;;;;-3.21;100.00;98885.55;1698931;82;21101;-73
2021/01/12 20:09:45;;;;;;;31.37;17.02;;;;;;;-3.21;100.00;98892.12;1688132;82;21233;-75
2021/01/12 20:14:46;;;;;;;41.08;17.15;;;;;;;-3.24;100.00;98898.04;1698999;81;20192;-73
2021/01/12 20:17:28;;;;;;;;;;;;;;;;;;;;;
2021/01/12 20:19:56;;;;;;;35.65;20.60;;;;;;;-3.24;100.00;98895.92;1661831;83;21087;-74
2021/01/12 20:22:34;;;;;;;33.53;18.62;;;;;;;-3.25;100.00;98894.30;1694848;80;21213;-75
2021/01/12 20:25:06;;;;;;;34.38;18.55;;;;;;;-3.24;100.00;98888.05;1693867;81;21193;-73
2021/01/12 20:27:38;;;;;;;40.63;22.22;;;;;;;-3.25;100.00;98888.55;1687722;82;21212;-71
2021/01/12 20:34:00;;;;;;;39.73;19.67;;;;;;;-3.25;100.00;98884.61;1703073;81;21269;-73
2021/01/12 20:41:24;;;;;;;;;;;;;;;;;;;;;
2021/01/12 20:51:49;;;;;;;41.37;21.00;;;;;;;-3.31;100.00;98856.95;1604122;87;21616;-75
2021/01/12 20:54:21;;;;;;;32.70;17.42;;;;;;;-3.35;100.00;98857.83;1591075;82;21758;-72
2021/01/12 20:57:37;;;;;;;42.75;21.62;;;;;;;-3.39;100.00;98856.55;1628669;86;21222;-74
2021/01/12 21:12:17;;;;;;;35.98;20.00;;;;;;;-3.60;100.00;98849.41;1646890;81;21612;-72
2021/01/12 21:26:56;;;;;;;39.58;18.80;;;;;;;-3.54;100.00;98840.00;1589157;85;21287;-74
2021/01/12 21:29:35;;;;;;;41.28;21.23;;;;;;;-3.48;100.00;98840.09;1845569;77;28296;-74
2021/01/12 21:32:25;;;;;;;28.15;14.80;;;;;;;-3.50;100.00;98847.33;1815833;78;26827;-74
2021/01/12 21:35:48;;;;;;;34.98;19.27;;;;;;;-3.48;100.00;98840.57;1806491;78;22217;-73
2021/01/12 21:38:17;;;;;;;33.70;19.37;;;;;;;-3.48;100.00;98839.26;1741898;82;21321;-74
2021/01/12 21:41:17;;;;;;;34.83;19.77;;;;;;;-3.48;100.00;98836.16;1779748;78;20995;-71
2021/01/12 21:44:06;;;;;;;36.65;17.30;;;;;;;-3.46;100.00;98837.27;1732285;80;20924;-72
2021/01/12 21:46:38;;;;;;;41.58;19.25;;;;;;;-3.43;100.00;98837.41;1781046;79;20904;-74
2021/01/12 21:49:07;;;;;;;35.58;19.73;;;;;;;-3.43;100.00;98826.41;1781791;80;21194;-72
2021/01/12 21:51:35;;;;;;;42.70;23.67;;;;;;;-3.40;100.00;98826.58;1781909;79;21502;-73
2021/01/12 21:54:08;;;;;;;39.88;20.37;;;;;;;-3.40;100.00;98814.27;1785763;80;20940;-73
2021/01/12 21:56:54;;;;;;;33.90;18.27;;;;;;;-3.37;100.00;98803.90;1782469;79;20992;-72
2021/01/12 22:00:06;;;;;;;35.63;21.80;;;;;;;-3.38;100.00;98793.91;1797967;78;21502;-74
2021/01/12 22:02:41;;;;;;;34.33;17.52;;;;;;;-3.38;100.00;98788.66;1784361;80;21485;-72
2021/01/12 22:05:15;;;;;;;39.35;19.67;;;;;;;-3.39;100.00;98784.39;1727760;82;20956;-72
2021/01/12 22:07:45;;;;;;;37.55;20.10;;;;;;;-3.40;100.00;98777.53;1777215;80;20915;-73
2021/01/12 22:10:14;;;;;;;36.05;19.82;;;;;;;-3.45;100.00;98766.77;1776781;80;21145;-72
2021/01/12 22:13:04;;;;;;;40.03;22.07;;;;;;;-3.50;100.00;98766.50;1775607;80;21107;-74
2021/01/12 22:16:20;;;;;;;34.95;19.77;;;;;;;-3.57;100.00;98767.72;1765221;80;21328;-73
2021/01/12 22:18:49;;;;;;;34.25;18.73;;;;;;;-3.61;100.00;98753.33;1777682;80;21165;-72
2021/01/12 22:21:19;;;;;;;38.23;22.67;;;;;;;-3.67;100.00;98748.32;1784049;80;21044;-72
2021/01/12 22:23:47;;;;;;;36.60;20.23;;;;;;;-3.69;100.00;98745.06;1719491;83;21102;-74
2021/01/12 22:26:18;;;;;;;40.50;20.65;;;;;;;-3.69;100.00;98738.50;1785266;80;26608;-73